sensor_id;sensor_type;location;lat;lon;timestamp;pressure;altitude;pressure_sealevel;temperature;humidity
740;BME280;354;42.694;23.336;2023-06-24T00:03:15;95293.66;;;22.21;100.00
740;BME280;354;42.694;23.336;2023-06-24T00:06:40;95300.66;;;22.17;100.00
740;BME280;354;42.694;23.336;2023-06-24T00:10:14;95300.44;;;22.08;100.00
740;BME280;354;42.694;23.336;2023-06-24T00:13:20;95299.41;;;22.04;100.00
740;BME280;354;42.694;23.336;2023-06-24T00:16:48;95299.97;;;22.01;100.00
740;BME280;354;42.694;23.336;2023-06-24T00:20:13;95298.66;;;21.99;100.00
740;BME280;354;42.694;23.336;2023-06-24T00:23:41;95301.34;;;21.99;100.00
740;BME280;354;42.694;23.336;2023-06-24T00:26:47;95303.22;;;21.98;100.00
740;BME280;354;42.694;23.336;2023-06-24T00:30:12;95310.75;;;21.91;100.00
740;BME280;354;42.694;23.336;2023-06-24T00:33:17;95308.69;;;21.83;100.00
740;BME280;354;42.694;23.336;2023-06-24T00:36:23;95305.00;;;21.74;100.00
740;BME280;354;42.694;23.336;2023-06-24T00:39:30;95303.16;;;21.69;100.00
740;BME280;354;42.694;23.336;2023-06-24T00:42:55;95306.09;;;21.73;100.00
740;BME280;354;42.694;23.336;2023-06-24T00:46:23;95306.13;;;21.68;100.00
740;BME280;354;42.694;23.336;2023-06-24T00:49:48;95280.53;;;21.51;100.00
740;BME280;354;42.694;23.336;2023-06-24T00:53:13;95297.38;;;21.57;100.00
740;BME280;354;42.694;23.336;2023-06-24T00:56:41;95295.78;;;21.56;100.00
740;BME280;354;42.694;23.336;2023-06-24T01:00:12;95296.31;;;21.53;100.00
740;BME280;354;42.694;23.336;2023-06-24T01:03:37;95288.84;;;21.50;100.00
740;BME280;354;42.694;23.336;2023-06-24T01:07:03;95292.91;;;21.42;100.00
740;BME280;354;42.694;23.336;2023-06-24T01:10:11;95283.28;;;21.41;100.00
740;BME280;354;42.694;23.336;2023-06-24T01:13:21;95286.53;;;21.38;100.00
740;BME280;354;42.694;23.336;2023-06-24T01:16:44;95279.88;;;21.25;100.00
740;BME280;354;42.694;23.336;2023-06-24T01:20:11;95281.22;;;21.23;100.00
740;BME280;354;42.694;23.336;2023-06-24T01:27:13;95287.13;;;21.20;100.00
740;BME280;354;42.694;23.336;2023-06-24T01:38:12;95284.28;;;21.06;100.00
740;BME280;354;42.694;23.336;2023-06-24T01:40:53;95290.97;;;20.98;100.00
740;BME280;354;42.694;23.336;2023-06-24T01:44:21;95298.78;;;20.90;100.00
740;BME280;354;42.694;23.336;2023-06-24T01:47:30;95311.63;;;20.88;100.00
740;BME280;354;42.694;23.336;2023-06-24T01:50:35;95323.13;;;20.93;100.00
740;BME280;354;42.694;23.336;2023-06-24T01:54:05;95323.06;;;20.98;100.00
740;BME280;354;42.694;23.336;2023-06-24T01:57:11;95322.00;;;20.99;100.00
740;BME280;354;42.694;23.336;2023-06-24T02:00:39;95299.63;;;20.80;100.00
740;BME280;354;42.694;23.336;2023-06-24T02:04:06;95325.81;;;20.88;100.00
740;BME280;354;42.694;23.336;2023-06-24T02:07:20;95343.19;;;20.86;100.00
740;BME280;354;42.694;23.336;2023-06-24T02:10:45;95344.56;;;20.73;100.00
740;BME280;354;42.694;23.336;2023-06-24T02:14:10;95337.63;;;20.72;100.00
740;BME280;354;42.694;23.336;2023-06-24T02:17:35;95347.25;;;20.68;100.00
740;BME280;354;42.694;23.336;2023-06-24T02:21:00;95351.28;;;20.55;100.00
740;BME280;354;42.694;23.336;2023-06-24T02:24:26;95352.63;;;20.58;100.00
740;BME280;354;42.694;23.336;2023-06-24T02:27:55;95362.00;;;20.55;100.00
740;BME280;354;42.694;23.336;2023-06-24T02:31:21;95370.81;;;20.56;100.00
740;BME280;354;42.694;23.336;2023-06-24T02:34:48;95371.31;;;20.63;100.00
740;BME280;354;42.694;23.336;2023-06-24T02:38:14;95386.28;;;20.64;100.00
740;BME280;354;42.694;23.336;2023-06-24T02:41:42;95398.03;;;20.68;100.00
740;BME280;354;42.694;23.336;2023-06-24T02:45:08;95403.38;;;20.73;100.00
740;BME280;354;42.694;23.336;2023-06-24T02:48:33;95397.75;;;20.69;100.00
740;BME280;354;42.694;23.336;2023-06-24T02:51:59;95392.16;;;20.61;100.00
740;BME280;354;42.694;23.336;2023-06-24T02:55:25;95388.72;;;20.55;100.00
740;BME280;354;42.694;23.336;2023-06-24T02:58:49;95406.06;;;20.52;100.00
740;BME280;354;42.694;23.336;2023-06-24T03:02:14;95411.41;;;20.47;100.00
740;BME280;354;42.694;23.336;2023-06-24T03:05:41;95411.41;;;20.47;100.00
740;BME280;354;42.694;23.336;2023-06-24T03:08:56;95404.19;;;20.53;100.00
740;BME280;354;42.694;23.336;2023-06-24T03:12:22;95414.09;;;20.52;100.00
740;BME280;354;42.694;23.336;2023-06-24T03:15:50;95417.28;;;20.55;100.00
740;BME280;354;42.694;23.336;2023-06-24T03:19:15;95404.47;;;20.57;100.00
740;BME280;354;42.694;23.336;2023-06-24T03:22:40;95409.81;;;20.62;100.00
740;BME280;354;42.694;23.336;2023-06-24T03:26:06;95407.66;;;20.69;100.00
740;BME280;354;42.694;23.336;2023-06-24T03:29:31;95414.34;;;20.66;100.00
740;BME280;354;42.694;23.336;2023-06-24T03:32:57;95429.53;;;20.76;100.00
740;BME280;354;42.694;23.336;2023-06-24T03:36:22;95433.28;;;20.90;100.00
740;BME280;354;42.694;23.336;2023-06-24T03:39:52;95436.47;;;20.97;100.00
740;BME280;354;42.694;23.336;2023-06-24T03:43:17;95428.44;;;21.02;100.00
740;BME280;354;42.694;23.336;2023-06-24T03:46:43;95444.44;;;21.13;100.00
740;BME280;354;42.694;23.336;2023-06-24T03:50:09;95445.50;;;21.22;100.00
740;BME280;354;42.694;23.336;2023-06-24T03:53:34;62912.72;;;-145.09;100.00
740;BME280;354;42.694;23.336;2023-06-24T03:56:59;62912.72;;;-145.09;100.00
740;BME280;354;42.694;23.336;2023-06-24T04:00:26;62912.72;;;-145.09;100.00
740;BME280;354;42.694;23.336;2023-06-24T04:03:52;62912.72;;;-145.09;100.00
740;BME280;354;42.694;23.336;2023-06-24T04:07:17;62912.72;;;-145.09;100.00
740;BME280;354;42.694;23.336;2023-06-24T04:10:44;62912.72;;;-145.09;100.00
740;BME280;354;42.694;23.336;2023-06-24T04:14:09;62912.72;;;-145.09;100.00
740;BME280;354;42.694;23.336;2023-06-24T04:17:35;62912.72;;;-145.09;100.00
740;BME280;354;42.694;23.336;2023-06-24T04:21:02;62912.72;;;-145.09;100.00
740;BME280;354;42.694;23.336;2023-06-24T04:24:07;62912.72;;;-145.09;100.00
740;BME280;354;42.694;23.336;2023-06-24T04:27:33;62912.72;;;-145.09;100.00
740;BME280;354;42.694;23.336;2023-06-24T04:31:01;62912.72;;;-145.09;100.00
740;BME280;354;42.694;23.336;2023-06-24T04:34:09;62912.72;;;-145.09;100.00
740;BME280;354;42.694;23.336;2023-06-24T04:37:29;62912.72;;;-145.09;100.00
740;BME280;354;42.694;23.336;2023-06-24T04:40:56;62912.72;;;-145.09;100.00
740;BME280;354;42.694;23.336;2023-06-24T04:44:21;62912.72;;;-145.09;100.00
740;BME280;354;42.694;23.336;2023-06-24T04:47:46;62912.72;;;-145.09;100.00
740;BME280;354;42.694;23.336;2023-06-24T04:51:15;62912.72;;;-145.09;100.00
740;BME280;354;42.694;23.336;2023-06-24T04:54:44;62912.72;;;-145.09;100.00
740;BME280;354;42.694;23.336;2023-06-24T04:58:10;62912.72;;;-145.09;100.00
740;BME280;354;42.694;23.336;2023-06-24T05:01:35;62912.72;;;-145.09;100.00
740;BME280;354;42.694;23.336;2023-06-24T05:04:43;62912.72;;;-145.09;100.00
740;BME280;354;42.694;23.336;2023-06-24T05:08:10;62912.72;;;-145.09;100.00
740;BME280;354;42.694;23.336;2023-06-24T05:11:35;62912.72;;;-145.09;100.00
740;BME280;354;42.694;23.336;2023-06-24T05:15:03;62912.72;;;-145.09;100.00
740;BME280;354;42.694;23.336;2023-06-24T05:18:29;62912.72;;;-145.09;100.00
740;BME280;354;42.694;23.336;2023-06-24T05:22:00;62912.72;;;-145.09;100.00
740;BME280;354;42.694;23.336;2023-06-24T05:25:29;62912.72;;;-145.09;100.00
740;BME280;354;42.694;23.336;2023-06-24T05:29:00;62912.72;;;-145.09;100.00
740;BME280;354;42.694;23.336;2023-06-24T05:32:28;62912.72;;;-145.09;100.00
740;BME280;354;42.694;23.336;2023-06-24T05:36:03;62912.72;;;-145.09;100.00
740;BME280;354;42.694;23.336;2023-06-24T05:39:16;62912.72;;;-145.09;100.00
740;BME280;354;42.694;23.336;2023-06-24T05:42:39;62912.72;;;-145.09;100.00
740;BME280;354;42.694;23.336;2023-06-24T05:46:19;62912.72;;;-145.09;100.00
740;BME280;354;42.694;23.336;2023-06-24T05:49:51;62912.72;;;-145.09;100.00
740;BME280;354;42.694;23.336;2023-06-24T05:53:36;62912.72;;;-145.09;100.00
740;BME280;354;42.694;23.336;2023-06-24T05:57:10;62912.72;;;-145.09;100.00
740;BME280;354;42.694;23.336;2023-06-24T06:00:37;62912.72;;;-145.09;100.00
740;BME280;354;42.694;23.336;2023-06-24T06:04:08;62912.72;;;-145.09;100.00
740;BME280;354;42.694;23.336;2023-06-24T06:07:45;62912.72;;;-145.09;100.00
740;BME280;354;42.694;23.336;2023-06-24T06:11:16;62912.72;;;-145.09;100.00
740;BME280;354;42.694;23.336;2023-06-24T06:14:46;62912.72;;;-145.09;100.00
740;BME280;354;42.694;23.336;2023-06-24T06:18:13;62912.72;;;-145.09;100.00
740;BME280;354;42.694;23.336;2023-06-24T06:21:45;62912.72;;;-145.09;100.00
740;BME280;354;42.694;23.336;2023-06-24T06:25:14;62912.72;;;-145.09;100.00
740;BME280;354;42.694;23.336;2023-06-24T06:28:41;62912.72;;;-145.09;100.00
740;BME280;354;42.694;23.336;2023-06-24T06:32:14;62912.72;;;-145.09;100.00
740;BME280;354;42.694;23.336;2023-06-24T06:35:42;62912.72;;;-145.09;100.00
740;BME280;354;42.694;23.336;2023-06-24T06:39:18;62912.72;;;-145.09;100.00
740;BME280;354;42.694;23.336;2023-06-24T06:42:55;62912.72;;;-145.09;100.00
740;BME280;354;42.694;23.336;2023-06-24T06:46:23;62912.72;;;-145.09;100.00
740;BME280;354;42.694;23.336;2023-06-24T06:49:56;62912.72;;;-145.09;100.00
740;BME280;354;42.694;23.336;2023-06-24T06:53:25;62912.72;;;-145.09;100.00
740;BME280;354;42.694;23.336;2023-06-24T06:56:52;62912.72;;;-145.09;100.00
740;BME280;354;42.694;23.336;2023-06-24T07:00:23;62912.72;;;-145.09;100.00
740;BME280;354;42.694;23.336;2023-06-24T07:03:49;62912.72;;;-145.09;100.00
740;BME280;354;42.694;23.336;2023-06-24T07:07:16;62912.72;;;-145.09;100.00
740;BME280;354;42.694;23.336;2023-06-24T07:10:50;62912.72;;;-145.09;100.00
740;BME280;354;42.694;23.336;2023-06-24T07:14:19;62912.72;;;-145.09;100.00
740;BME280;354;42.694;23.336;2023-06-24T07:17:45;62912.72;;;-145.09;100.00
740;BME280;354;42.694;23.336;2023-06-24T07:21:12;62912.72;;;-145.09;100.00
740;BME280;354;42.694;23.336;2023-06-24T07:24:38;62912.72;;;-145.09;100.00
740;BME280;354;42.694;23.336;2023-06-24T07:28:03;62912.72;;;-145.09;100.00
740;BME280;354;42.694;23.336;2023-06-24T07:31:33;62912.72;;;-145.09;100.00
740;BME280;354;42.694;23.336;2023-06-24T07:35:04;62912.72;;;-145.09;100.00
740;BME280;354;42.694;23.336;2023-06-24T07:38:37;62912.72;;;-145.09;100.00
740;BME280;354;42.694;23.336;2023-06-24T07:42:05;62912.72;;;-145.09;100.00
740;BME280;354;42.694;23.336;2023-06-24T07:45:35;62912.72;;;-145.09;100.00
740;BME280;354;42.694;23.336;2023-06-24T07:49:06;62912.72;;;-145.09;100.00
740;BME280;354;42.694;23.336;2023-06-24T07:52:43;62912.72;;;-145.09;100.00
740;BME280;354;42.694;23.336;2023-06-24T07:56:11;62912.72;;;-145.09;100.00
740;BME280;354;42.694;23.336;2023-06-24T07:59:37;62912.72;;;-145.09;100.00
740;BME280;354;42.694;23.336;2023-06-24T08:03:04;62912.72;;;-145.09;100.00
740;BME280;354;42.694;23.336;2023-06-24T08:06:40;62912.72;;;-145.09;100.00
740;BME280;354;42.694;23.336;2023-06-24T08:10:12;62912.72;;;-145.09;100.00
740;BME280;354;42.694;23.336;2023-06-24T08:13:38;62912.72;;;-145.09;100.00
740;BME280;354;42.694;23.336;2023-06-24T08:17:28;62912.72;;;-145.09;100.00
740;BME280;354;42.694;23.336;2023-06-24T08:20:58;62912.72;;;-145.09;100.00
740;BME280;354;42.694;23.336;2023-06-24T08:24:26;62912.72;;;-145.09;100.00
740;BME280;354;42.694;23.336;2023-06-24T08:27:53;62912.72;;;-145.09;100.00
740;BME280;354;42.694;23.336;2023-06-24T08:31:18;62912.72;;;-145.09;100.00
740;BME280;354;42.694;23.336;2023-06-24T08:34:53;62912.72;;;-145.09;100.00
740;BME280;354;42.694;23.336;2023-06-24T08:38:30;62912.72;;;-145.09;100.00
740;BME280;354;42.694;23.336;2023-06-24T08:42:00;62912.72;;;-145.09;100.00
740;BME280;354;42.694;23.336;2023-06-24T08:52:26;62912.72;;;-145.09;100.00
740;BME280;354;42.694;23.336;2023-06-24T08:55:57;62912.72;;;-145.09;100.00
740;BME280;354;42.694;23.336;2023-06-24T08:59:25;62912.72;;;-145.09;100.00
740;BME280;354;42.694;23.336;2023-06-24T09:10:33;62912.72;;;-145.09;100.00
740;BME280;354;42.694;23.336;2023-06-24T09:13:59;62912.72;;;-145.09;100.00
740;BME280;354;42.694;23.336;2023-06-24T09:17:26;62912.72;;;-145.09;100.00
740;BME280;354;42.694;23.336;2023-06-24T09:20:56;62912.72;;;-145.09;100.00
740;BME280;354;42.694;23.336;2023-06-24T09:23:43;62912.72;;;-145.09;100.00
740;BME280;354;42.694;23.336;2023-06-24T09:26:31;62912.72;;;-145.09;100.00
740;BME280;354;42.694;23.336;2023-06-24T09:28:58;62912.72;;;-145.09;100.00
740;BME280;354;42.694;23.336;2023-06-24T09:31:50;62912.72;;;-145.09;100.00
740;BME280;354;42.694;23.336;2023-06-24T09:34:21;62912.72;;;-145.09;100.00
740;BME280;354;42.694;23.336;2023-06-24T09:36:52;62912.72;;;-145.09;100.00
740;BME280;354;42.694;23.336;2023-06-24T09:39:18;62912.72;;;-145.09;100.00
740;BME280;354;42.694;23.336;2023-06-24T09:41:49;62912.72;;;-145.09;100.00
740;BME280;354;42.694;23.336;2023-06-24T09:45:04;62912.72;;;-145.09;100.00
740;BME280;354;42.694;23.336;2023-06-24T09:48:34;62912.72;;;-145.09;100.00
740;BME280;354;42.694;23.336;2023-06-24T09:51:03;62912.72;;;-145.09;100.00
740;BME280;354;42.694;23.336;2023-06-24T09:53:33;62912.72;;;-145.09;100.00
740;BME280;354;42.694;23.336;2023-06-24T09:56:18;62912.72;;;-145.09;100.00
740;BME280;354;42.694;23.336;2023-06-24T09:59:07;62912.72;;;-145.09;100.00
740;BME280;354;42.694;23.336;2023-06-24T10:01:38;62912.72;;;-145.09;100.00
740;BME280;354;42.694;23.336;2023-06-24T10:04:26;62912.72;;;-145.09;100.00
740;BME280;354;42.694;23.336;2023-06-24T10:07:32;62912.72;;;-145.09;100.00
740;BME280;354;42.694;23.336;2023-06-24T10:10:02;62912.72;;;-145.09;100.00
740;BME280;354;42.694;23.336;2023-06-24T10:12:31;62912.72;;;-145.09;100.00
740;BME280;354;42.694;23.336;2023-06-24T10:15:41;62912.72;;;-145.09;100.00
740;BME280;354;42.694;23.336;2023-06-24T10:19:03;62912.72;;;-145.09;100.00
740;BME280;354;42.694;23.336;2023-06-24T10:22:18;62912.72;;;-145.09;100.00
740;BME280;354;42.694;23.336;2023-06-24T10:24:47;62912.72;;;-145.09;100.00
740;BME280;354;42.694;23.336;2023-06-24T10:27:17;62912.72;;;-145.09;100.00
740;BME280;354;42.694;23.336;2023-06-24T10:29:47;62912.72;;;-145.09;100.00
740;BME280;354;42.694;23.336;2023-06-24T10:32:13;62912.72;;;-145.09;100.00
740;BME280;354;42.694;23.336;2023-06-24T10:42:50;62912.72;;;-145.09;100.00
740;BME280;354;42.694;23.336;2023-06-24T10:45:19;62912.72;;;-145.09;100.00
740;BME280;354;42.694;23.336;2023-06-24T10:47:51;62912.72;;;-145.09;100.00
740;BME280;354;42.694;23.336;2023-06-24T10:50:22;62912.72;;;-145.09;100.00
740;BME280;354;42.694;23.336;2023-06-24T10:52:52;62912.72;;;-145.09;100.00
740;BME280;354;42.694;23.336;2023-06-24T10:55:24;62912.72;;;-145.09;100.00
740;BME280;354;42.694;23.336;2023-06-24T10:57:53;62912.72;;;-145.09;100.00
740;BME280;354;42.694;23.336;2023-06-24T11:00:20;62912.72;;;-145.09;100.00
740;BME280;354;42.694;23.336;2023-06-24T11:02:46;62912.72;;;-145.09;100.00
740;BME280;354;42.694;23.336;2023-06-24T11:05:11;62912.72;;;-145.09;100.00
740;BME280;354;42.694;23.336;2023-06-24T11:07:38;62912.72;;;-145.09;100.00
740;BME280;354;42.694;23.336;2023-06-24T11:10:14;62912.72;;;-145.09;100.00
740;BME280;354;42.694;23.336;2023-06-24T11:12:41;62912.72;;;-145.09;100.00
740;BME280;354;42.694;23.336;2023-06-24T11:15:11;62912.72;;;-145.09;100.00
740;BME280;354;42.694;23.336;2023-06-24T11:17:41;62912.72;;;-145.09;100.00
740;BME280;354;42.694;23.336;2023-06-24T11:20:53;62912.72;;;-145.09;100.00
740;BME280;354;42.694;23.336;2023-06-24T11:23:20;62912.72;;;-145.09;100.00
740;BME280;354;42.694;23.336;2023-06-24T11:25:46;62912.72;;;-145.09;100.00
740;BME280;354;42.694;23.336;2023-06-24T11:28:18;62912.72;;;-145.09;100.00
740;BME280;354;42.694;23.336;2023-06-24T11:30:43;62912.72;;;-145.09;100.00
740;BME280;354;42.694;23.336;2023-06-24T11:33:09;62912.72;;;-145.09;100.00
740;BME280;354;42.694;23.336;2023-06-24T11:35:34;62912.72;;;-145.09;100.00
740;BME280;354;42.694;23.336;2023-06-24T11:38:01;62912.72;;;-145.09;100.00
740;BME280;354;42.694;23.336;2023-06-24T11:40:27;62912.72;;;-145.09;100.00
740;BME280;354;42.694;23.336;2023-06-24T11:42:52;62912.72;;;-145.09;100.00
740;BME280;354;42.694;23.336;2023-06-24T11:45:21;62912.72;;;-145.09;100.00
740;BME280;354;42.694;23.336;2023-06-24T11:47:47;62912.72;;;-145.09;100.00
740;BME280;354;42.694;23.336;2023-06-24T11:50:13;62912.72;;;-145.09;100.00
740;BME280;354;42.694;23.336;2023-06-24T11:52:49;62912.72;;;-145.09;100.00
740;BME280;354;42.694;23.336;2023-06-24T11:55:21;62912.72;;;-145.09;100.00
740;BME280;354;42.694;23.336;2023-06-24T11:58:01;62912.72;;;-145.09;100.00
740;BME280;354;42.694;23.336;2023-06-24T12:00:30;62912.72;;;-145.09;100.00
740;BME280;354;42.694;23.336;2023-06-24T12:03:01;62912.72;;;-145.09;100.00
740;BME280;354;42.694;23.336;2023-06-24T12:05:32;62912.72;;;-145.09;100.00
740;BME280;354;42.694;23.336;2023-06-24T12:08:01;62912.72;;;-145.09;100.00
740;BME280;354;42.694;23.336;2023-06-24T12:10:28;62912.72;;;-145.09;100.00
740;BME280;354;42.694;23.336;2023-06-24T12:12:55;62912.72;;;-145.09;100.00
740;BME280;354;42.694;23.336;2023-06-24T12:15:21;62912.72;;;-145.09;100.00
740;BME280;354;42.694;23.336;2023-06-24T12:17:46;62912.72;;;-145.09;100.00
740;BME280;354;42.694;23.336;2023-06-24T12:20:13;62912.72;;;-145.09;100.00
740;BME280;354;42.694;23.336;2023-06-24T12:22:39;62912.72;;;-145.09;100.00
740;BME280;354;42.694;23.336;2023-06-24T12:25:05;62912.72;;;-145.09;100.00
740;BME280;354;42.694;23.336;2023-06-24T12:27:30;62912.72;;;-145.09;100.00
740;BME280;354;42.694;23.336;2023-06-24T12:29:56;62912.72;;;-145.09;100.00
740;BME280;354;42.694;23.336;2023-06-24T12:32:21;62912.72;;;-145.09;100.00
740;BME280;354;42.694;23.336;2023-06-24T12:34:46;62912.72;;;-145.09;100.00
740;BME280;354;42.694;23.336;2023-06-24T12:37:12;62912.72;;;-145.09;100.00
740;BME280;354;42.694;23.336;2023-06-24T12:39:37;62912.72;;;-145.09;100.00
740;BME280;354;42.694;23.336;2023-06-24T12:42:03;62912.72;;;-145.09;100.00
740;BME280;354;42.694;23.336;2023-06-24T12:44:28;62912.72;;;-145.09;100.00
740;BME280;354;42.694;23.336;2023-06-24T12:46:53;62912.72;;;-145.09;100.00
740;BME280;354;42.694;23.336;2023-06-24T12:49:19;62912.72;;;-145.09;100.00
740;BME280;354;42.694;23.336;2023-06-24T12:51:44;62912.72;;;-145.09;100.00
740;BME280;354;42.694;23.336;2023-06-24T12:54:10;62912.72;;;-145.09;100.00
740;BME280;354;42.694;23.336;2023-06-24T12:56:37;62912.72;;;-145.09;100.00
740;BME280;354;42.694;23.336;2023-06-24T12:59:02;62912.72;;;-145.09;100.00
740;BME280;354;42.694;23.336;2023-06-24T13:01:28;62912.72;;;-145.09;100.00
740;BME280;354;42.694;23.336;2023-06-24T13:03:53;62912.72;;;-145.09;100.00
740;BME280;354;42.694;23.336;2023-06-24T13:06:19;62912.72;;;-145.09;100.00
740;BME280;354;42.694;23.336;2023-06-24T13:08:44;62912.72;;;-145.09;100.00
740;BME280;354;42.694;23.336;2023-06-24T13:11:09;62912.72;;;-145.09;100.00
740;BME280;354;42.694;23.336;2023-06-24T13:13:35;62912.72;;;-145.09;100.00
740;BME280;354;42.694;23.336;2023-06-24T13:16:01;62912.72;;;-145.09;100.00
740;BME280;354;42.694;23.336;2023-06-24T13:18:26;62912.72;;;-145.09;100.00
740;BME280;354;42.694;23.336;2023-06-24T13:20:52;62912.72;;;-145.09;100.00
740;BME280;354;42.694;23.336;2023-06-24T13:23:17;62912.72;;;-145.09;100.00
740;BME280;354;42.694;23.336;2023-06-24T13:25:42;62912.72;;;-145.09;100.00
740;BME280;354;42.694;23.336;2023-06-24T13:28:08;62912.72;;;-145.09;100.00
740;BME280;354;42.694;23.336;2023-06-24T13:30:33;62912.72;;;-145.09;100.00
740;BME280;354;42.694;23.336;2023-06-24T13:32:58;62912.72;;;-145.09;100.00
740;BME280;354;42.694;23.336;2023-06-24T13:35:24;62912.72;;;-145.09;100.00
740;BME280;354;42.694;23.336;2023-06-24T13:37:49;62912.72;;;-145.09;100.00
740;BME280;354;42.694;23.336;2023-06-24T13:40:14;62912.72;;;-145.09;100.00
740;BME280;354;42.694;23.336;2023-06-24T13:42:40;62912.72;;;-145.09;100.00
740;BME280;354;42.694;23.336;2023-06-24T13:45:06;62912.72;;;-145.09;100.00
740;BME280;354;42.694;23.336;2023-06-24T13:47:31;62912.72;;;-145.09;100.00
740;BME280;354;42.694;23.336;2023-06-24T13:49:57;62912.72;;;-145.09;100.00
740;BME280;354;42.694;23.336;2023-06-24T13:52:24;62912.72;;;-145.09;100.00
740;BME280;354;42.694;23.336;2023-06-24T13:54:50;62912.72;;;-145.09;100.00
740;BME280;354;42.694;23.336;2023-06-24T13:57:15;62912.72;;;-145.09;100.00
740;BME280;354;42.694;23.336;2023-06-24T13:59:41;62912.72;;;-145.09;100.00
740;BME280;354;42.694;23.336;2023-06-24T14:02:07;62912.72;;;-145.09;100.00
740;BME280;354;42.694;23.336;2023-06-24T14:04:34;62912.72;;;-145.09;100.00
740;BME280;354;42.694;23.336;2023-06-24T14:07:00;62912.72;;;-145.09;100.00
740;BME280;354;42.694;23.336;2023-06-24T14:09:25;62912.72;;;-145.09;100.00
740;BME280;354;42.694;23.336;2023-06-24T14:11:50;62912.72;;;-145.09;100.00
740;BME280;354;42.694;23.336;2023-06-24T14:14:16;62912.72;;;-145.09;100.00
740;BME280;354;42.694;23.336;2023-06-24T14:16:42;62912.72;;;-145.09;100.00
740;BME280;354;42.694;23.336;2023-06-24T14:19:07;62912.72;;;-145.09;100.00
740;BME280;354;42.694;23.336;2023-06-24T14:21:33;62912.72;;;-145.09;100.00
740;BME280;354;42.694;23.336;2023-06-24T14:24:00;62912.72;;;-145.09;100.00
740;BME280;354;42.694;23.336;2023-06-24T14:26:26;62912.72;;;-145.09;100.00
740;BME280;354;42.694;23.336;2023-06-24T14:28:51;62912.72;;;-145.09;100.00
740;BME280;354;42.694;23.336;2023-06-24T14:31:17;62912.72;;;-145.09;100.00
740;BME280;354;42.694;23.336;2023-06-24T14:33:42;62912.72;;;-145.09;100.00
740;BME280;354;42.694;23.336;2023-06-24T14:36:08;62912.72;;;-145.09;100.00
740;BME280;354;42.694;23.336;2023-06-24T14:38:33;62912.72;;;-145.09;100.00
740;BME280;354;42.694;23.336;2023-06-24T14:40:58;62912.72;;;-145.09;100.00
740;BME280;354;42.694;23.336;2023-06-24T14:43:24;62912.72;;;-145.09;100.00
740;BME280;354;42.694;23.336;2023-06-24T14:45:49;62912.72;;;-145.09;100.00
740;BME280;354;42.694;23.336;2023-06-24T14:48:14;62912.72;;;-145.09;100.00
740;BME280;354;42.694;23.336;2023-06-24T14:50:40;62912.72;;;-145.09;100.00
740;BME280;354;42.694;23.336;2023-06-24T14:53:06;62912.72;;;-145.09;100.00
740;BME280;354;42.694;23.336;2023-06-24T14:55:31;62912.72;;;-145.09;100.00
740;BME280;354;42.694;23.336;2023-06-24T14:57:57;62912.72;;;-145.09;100.00
740;BME280;354;42.694;23.336;2023-06-24T15:00:22;62912.72;;;-145.09;100.00
740;BME280;354;42.694;23.336;2023-06-24T15:02:47;62912.72;;;-145.09;100.00
740;BME280;354;42.694;23.336;2023-06-24T15:05:13;62912.72;;;-145.09;100.00
740;BME280;354;42.694;23.336;2023-06-24T15:07:38;62912.72;;;-145.09;100.00
740;BME280;354;42.694;23.336;2023-06-24T15:10:05;62912.72;;;-145.09;100.00
740;BME280;354;42.694;23.336;2023-06-24T15:12:31;62912.72;;;-145.09;100.00
740;BME280;354;42.694;23.336;2023-06-24T15:14:56;62912.72;;;-145.09;100.00
740;BME280;354;42.694;23.336;2023-06-24T15:17:21;62912.72;;;-145.09;100.00
740;BME280;354;42.694;23.336;2023-06-24T15:19:48;62912.72;;;-145.09;100.00
740;BME280;354;42.694;23.336;2023-06-24T15:22:13;62912.72;;;-145.09;100.00
740;BME280;354;42.694;23.336;2023-06-24T15:24:38;62912.72;;;-145.09;100.00
740;BME280;354;42.694;23.336;2023-06-24T15:27:04;62912.72;;;-145.09;100.00
740;BME280;354;42.694;23.336;2023-06-24T15:29:29;62912.72;;;-145.09;100.00
740;BME280;354;42.694;23.336;2023-06-24T15:31:55;62912.72;;;-145.09;100.00
740;BME280;354;42.694;23.336;2023-06-24T15:34:20;62912.72;;;-145.09;100.00
740;BME280;354;42.694;23.336;2023-06-24T15:36:45;62912.72;;;-145.09;100.00
740;BME280;354;42.694;23.336;2023-06-24T15:39:11;62912.72;;;-145.09;100.00
740;BME280;354;42.694;23.336;2023-06-24T15:41:37;62912.72;;;-145.09;100.00
740;BME280;354;42.694;23.336;2023-06-24T15:44:06;62912.72;;;-145.09;100.00
740;BME280;354;42.694;23.336;2023-06-24T15:46:31;62912.72;;;-145.09;100.00
740;BME280;354;42.694;23.336;2023-06-24T15:48:57;62912.72;;;-145.09;100.00
740;BME280;354;42.694;23.336;2023-06-24T15:51:22;62912.72;;;-145.09;100.00
740;BME280;354;42.694;23.336;2023-06-24T15:53:48;62912.72;;;-145.09;100.00
740;BME280;354;42.694;23.336;2023-06-24T15:56:13;62912.72;;;-145.09;100.00
740;BME280;354;42.694;23.336;2023-06-24T15:58:39;62912.72;;;-145.09;100.00
740;BME280;354;42.694;23.336;2023-06-24T16:01:05;62912.72;;;-145.09;100.00
740;BME280;354;42.694;23.336;2023-06-24T16:03:30;62912.72;;;-145.09;100.00
740;BME280;354;42.694;23.336;2023-06-24T16:05:55;62912.72;;;-145.09;100.00
740;BME280;354;42.694;23.336;2023-06-24T16:08:21;62912.72;;;-145.09;100.00
740;BME280;354;42.694;23.336;2023-06-24T16:10:47;62912.72;;;-145.09;100.00
740;BME280;354;42.694;23.336;2023-06-24T16:13:12;62912.72;;;-145.09;100.00
740;BME280;354;42.694;23.336;2023-06-24T16:15:38;62912.72;;;-145.09;100.00
740;BME280;354;42.694;23.336;2023-06-24T16:18:03;62912.72;;;-145.09;100.00